sensor_id;sensor_type;location;lat;lon;timestamp;P1;durP1;ratioP1;P2;durP2;ratioP2
13356;SDS011;6747;56.456;-3.120;2022-10-23T00:01:17;4.75;;;1.90;;
13356;SDS011;6747;56.456;-3.120;2022-10-23T00:06:49;5.53;;;2.00;;
13356;SDS011;6747;56.456;-3.120;2022-10-23T00:09:17;5.13;;;1.98;;
13356;SDS011;6747;56.456;-3.120;2022-10-23T00:11:45;5.82;;;2.30;;
13356;SDS011;6747;56.456;-3.120;2022-10-23T00:17:16;4.80;;;1.80;;
13356;SDS011;6747;56.456;-3.120;2022-10-23T00:19:43;6.47;;;2.40;;
13356;SDS011;6747;56.456;-3.120;2022-10-23T00:22:12;5.10;;;2.22;;
13356;SDS011;6747;56.456;-3.120;2022-10-23T00:27:43;4.63;;;2.08;;
13356;SDS011;6747;56.456;-3.120;2022-10-23T00:30:11;5.40;;;2.00;;
13356;SDS011;6747;56.456;-3.120;2022-10-23T00:32:39;4.57;;;2.20;;
13356;SDS011;6747;56.456;-3.120;2022-10-23T00:40:57;3.15;;;2.15;;
13356;SDS011;6747;56.456;-3.120;2022-10-23T00:46:28;5.93;;;2.00;;
13356;SDS011;6747;56.456;-3.120;2022-10-23T00:48:56;7.38;;;2.05;;
13356;SDS011;6747;56.456;-3.120;2022-10-23T00:51:24;4.00;;;2.00;;
13356;SDS011;6747;56.456;-3.120;2022-10-23T01:00:02;5.28;;;1.90;;
13356;SDS011;6747;56.456;-3.120;2022-10-23T01:02:29;5.72;;;2.35;;
13356;SDS011;6747;56.456;-3.120;2022-10-23T01:08:01;4.95;;;2.05;;
13356;SDS011;6747;56.456;-3.120;2022-10-23T01:10:31;6.45;;;2.20;;
13356;SDS011;6747;56.456;-3.120;2022-10-23T01:13:01;3.72;;;2.30;;
13356;SDS011;6747;56.456;-3.120;2022-10-23T01:18:39;5.43;;;2.33;;
13356;SDS011;6747;56.456;-3.120;2022-10-23T01:21:08;5.22;;;2.83;;
13356;SDS011;6747;56.456;-3.120;2022-10-23T01:26:44;7.78;;;2.45;;
13356;SDS011;6747;56.456;-3.120;2022-10-23T01:29:18;4.03;;;2.13;;
13356;SDS011;6747;56.456;-3.120;2022-10-23T01:31:48;5.45;;;2.47;;
13356;SDS011;6747;56.456;-3.120;2022-10-23T01:37:22;5.28;;;2.20;;
13356;SDS011;6747;56.456;-3.120;2022-10-23T01:39:50;3.70;;;2.30;;
13356;SDS011;6747;56.456;-3.120;2022-10-23T01:42:19;3.40;;;2.30;;
13356;SDS011;6747;56.456;-3.120;2022-10-23T01:47:35;4.93;;;2.40;;
13356;SDS011;6747;56.456;-3.120;2022-10-23T01:50:04;5.22;;;2.42;;
13356;SDS011;6747;56.456;-3.120;2022-10-23T01:52:33;8.23;;;2.47;;
13356;SDS011;6747;56.456;-3.120;2022-10-23T01:58:04;7.45;;;2.60;;
13356;SDS011;6747;56.456;-3.120;2022-10-23T02:06:42;7.63;;;2.50;;
13356;SDS011;6747;56.456;-3.120;2022-10-23T02:09:09;7.32;;;2.50;;
13356;SDS011;6747;56.456;-3.120;2022-10-23T02:11:38;6.28;;;2.67;;
13356;SDS011;6747;56.456;-3.120;2022-10-23T02:17:13;4.55;;;2.00;;
13356;SDS011;6747;56.456;-3.120;2022-10-23T02:19:42;4.90;;;2.38;;
13356;SDS011;6747;56.456;-3.120;2022-10-23T02:22:13;6.78;;;2.03;;
13356;SDS011;6747;56.456;-3.120;2022-10-23T02:27:46;5.03;;;2.20;;
13356;SDS011;6747;56.456;-3.120;2022-10-23T02:30:14;9.95;;;2.72;;
13356;SDS011;6747;56.456;-3.120;2022-10-23T02:32:43;5.68;;;2.10;;
13356;SDS011;6747;56.456;-3.120;2022-10-23T02:38:28;5.10;;;1.85;;
13356;SDS011;6747;56.456;-3.120;2022-10-23T02:40:57;4.30;;;1.90;;
13356;SDS011;6747;56.456;-3.120;2022-10-23T02:49:02;4.82;;;2.13;;
13356;SDS011;6747;56.456;-3.120;2022-10-23T02:51:35;7.50;;;1.98;;
13356;SDS011;6747;56.456;-3.120;2022-10-23T03:00:00;6.15;;;2.10;;
13356;SDS011;6747;56.456;-3.120;2022-10-23T03:02:29;6.78;;;3.03;;
13356;SDS011;6747;56.456;-3.120;2022-10-23T03:08:02;5.78;;;2.20;;
13356;SDS011;6747;56.456;-3.120;2022-10-23T03:10:29;6.18;;;2.40;;
13356;SDS011;6747;56.456;-3.120;2022-10-23T03:12:57;8.90;;;2.10;;
13356;SDS011;6747;56.456;-3.120;2022-10-23T03:18:29;5.43;;;2.13;;
13356;SDS011;6747;56.456;-3.120;2022-10-23T03:20:56;6.82;;;2.20;;
13356;SDS011;6747;56.456;-3.120;2022-10-23T03:23:25;5.05;;;2.00;;
13356;SDS011;6747;56.456;-3.120;2022-10-23T03:32:12;6.65;;;2.00;;
13356;SDS011;6747;56.456;-3.120;2022-10-23T03:37:44;5.68;;;2.00;;
13356;SDS011;6747;56.456;-3.120;2022-10-23T03:40:11;7.95;;;2.13;;
13356;SDS011;6747;56.456;-3.120;2022-10-23T03:42:39;4.50;;;1.75;;
13356;SDS011;6747;56.456;-3.120;2022-10-23T03:48:09;3.05;;;1.90;;
13356;SDS011;6747;56.456;-3.120;2022-10-23T03:50:37;6.65;;;1.98;;
13356;SDS011;6747;56.456;-3.120;2022-10-23T03:53:06;4.80;;;1.95;;
13356;SDS011;6747;56.456;-3.120;2022-10-23T03:58:36;4.20;;;2.10;;
13356;SDS011;6747;56.456;-3.120;2022-10-23T04:01:04;4.93;;;2.35;;
13356;SDS011;6747;56.456;-3.120;2022-10-23T04:06:35;4.90;;;2.33;;
13356;SDS011;6747;56.456;-3.120;2022-10-23T04:09:04;5.07;;;1.95;;
13356;SDS011;6747;56.456;-3.120;2022-10-23T04:11:31;7.28;;;2.28;;
13356;SDS011;6747;56.456;-3.120;2022-10-23T04:17:02;6.68;;;2.28;;
13356;SDS011;6747;56.456;-3.120;2022-10-23T04:19:30;5.05;;;2.10;;
13356;SDS011;6747;56.456;-3.120;2022-10-23T04:21:57;6.78;;;1.90;;
13356;SDS011;6747;56.456;-3.120;2022-10-23T04:27:30;4.72;;;2.15;;
13356;SDS011;6747;56.456;-3.120;2022-10-23T04:29:58;5.78;;;2.10;;
13356;SDS011;6747;56.456;-3.120;2022-10-23T04:32:25;3.95;;;2.05;;
13356;SDS011;6747;56.456;-3.120;2022-10-23T04:37:57;9.27;;;2.33;;
13356;SDS011;6747;56.456;-3.120;2022-10-23T04:40:24;6.68;;;1.98;;
13356;SDS011;6747;56.456;-3.120;2022-10-23T04:42:53;7.30;;;1.88;;
13356;SDS011;6747;56.456;-3.120;2022-10-23T04:51:28;6.00;;;2.28;;
13356;SDS011;6747;56.456;-3.120;2022-10-23T04:56:58;3.00;;;2.20;;
13356;SDS011;6747;56.456;-3.120;2022-10-23T04:59:27;5.93;;;2.13;;
13356;SDS011;6747;56.456;-3.120;2022-10-23T05:01:54;3.78;;;2.05;;
13356;SDS011;6747;56.456;-3.120;2022-10-23T05:07:08;7.93;;;2.17;;
13356;SDS011;6747;56.456;-3.120;2022-10-23T05:09:35;5.32;;;2.30;;
13356;SDS011;6747;56.456;-3.120;2022-10-23T05:12:03;7.90;;;2.90;;
13356;SDS011;6747;56.456;-3.120;2022-10-23T05:14:34;3.72;;;2.17;;
13356;SDS011;6747;56.456;-3.120;2022-10-23T05:17:02;6.60;;;2.30;;
13356;SDS011;6747;56.456;-3.120;2022-10-23T05:19:32;5.45;;;2.22;;
13356;SDS011;6747;56.456;-3.120;2022-10-23T05:22:00;3.78;;;1.80;;
13356;SDS011;6747;56.456;-3.120;2022-10-23T05:27:31;6.25;;;2.13;;
13356;SDS011;6747;56.456;-3.120;2022-10-23T05:30:00;3.03;;;1.83;;
13356;SDS011;6747;56.456;-3.120;2022-10-23T05:32:28;8.13;;;2.25;;
13356;SDS011;6747;56.456;-3.120;2022-10-23T05:38:00;3.63;;;1.90;;
13356;SDS011;6747;56.456;-3.120;2022-10-23T05:40:28;8.55;;;2.25;;
13356;SDS011;6747;56.456;-3.120;2022-10-23T05:42:55;6.72;;;2.50;;
13356;SDS011;6747;56.456;-3.120;2022-10-23T05:45:25;3.60;;;2.00;;
13356;SDS011;6747;56.456;-3.120;2022-10-23T05:47:53;6.72;;;2.17;;
13356;SDS011;6747;56.456;-3.120;2022-10-23T05:50:20;4.85;;;2.30;;
13356;SDS011;6747;56.456;-3.120;2022-10-23T05:52:47;4.82;;;1.83;;
13356;SDS011;6747;56.456;-3.120;2022-10-23T05:55:15;5.15;;;2.33;;
13356;SDS011;6747;56.456;-3.120;2022-10-23T05:57:43;5.25;;;2.22;;
13356;SDS011;6747;56.456;-3.120;2022-10-23T06:00:13;3.97;;;2.17;;
13356;SDS011;6747;56.456;-3.120;2022-10-23T06:02:42;6.75;;;2.15;;
13356;SDS011;6747;56.456;-3.120;2022-10-23T06:08:12;4.40;;;1.90;;
13356;SDS011;6747;56.456;-3.120;2022-10-23T06:10:40;6.10;;;2.60;;
13356;SDS011;6747;56.456;-3.120;2022-10-23T06:13:07;3.45;;;2.20;;
13356;SDS011;6747;56.456;-3.120;2022-10-23T06:15:35;5.15;;;2.55;;
13356;SDS011;6747;56.456;-3.120;2022-10-23T06:18:04;6.28;;;2.30;;
13356;SDS011;6747;56.456;-3.120;2022-10-23T06:20:33;5.53;;;2.22;;
13356;SDS011;6747;56.456;-3.120;2022-10-23T06:23:01;5.20;;;2.17;;
13356;SDS011;6747;56.456;-3.120;2022-10-23T06:25:28;4.85;;;2.67;;
13356;SDS011;6747;56.456;-3.120;2022-10-23T06:27:56;5.85;;;2.60;;
13356;SDS011;6747;56.456;-3.120;2022-10-23T06:30:23;3.53;;;2.33;;
13356;SDS011;6747;56.456;-3.120;2022-10-23T06:32:50;3.67;;;2.30;;
13356;SDS011;6747;56.456;-3.120;2022-10-23T06:38:23;4.13;;;2.58;;
13356;SDS011;6747;56.456;-3.120;2022-10-23T06:40:51;4.03;;;2.65;;
13356;SDS011;6747;56.456;-3.120;2022-10-23T06:43:18;5.82;;;2.85;;
13356;SDS011;6747;56.456;-3.120;2022-10-23T06:48:49;6.32;;;2.30;;
13356;SDS011;6747;56.456;-3.120;2022-10-23T06:51:17;4.47;;;2.20;;
13356;SDS011;6747;56.456;-3.120;2022-10-23T06:56:51;4.47;;;2.17;;
13356;SDS011;6747;56.456;-3.120;2022-10-23T06:59:18;3.97;;;2.60;;
13356;SDS011;6747;56.456;-3.120;2022-10-23T07:01:46;3.28;;;2.10;;
13356;SDS011;6747;56.456;-3.120;2022-10-23T07:07:17;3.05;;;2.22;;
13356;SDS011;6747;56.456;-3.120;2022-10-23T07:09:44;3.42;;;2.10;;
13356;SDS011;6747;56.456;-3.120;2022-10-23T07:12:13;4.03;;;2.60;;
13356;SDS011;6747;56.456;-3.120;2022-10-23T07:20:47;6.85;;;2.42;;
13356;SDS011;6747;56.456;-3.120;2022-10-23T07:23:15;7.38;;;2.78;;
13356;SDS011;6747;56.456;-3.120;2022-10-23T07:25:42;7.75;;;2.42;;
13356;SDS011;6747;56.456;-3.120;2022-10-23T07:28:11;6.45;;;2.70;;
13356;SDS011;6747;56.456;-3.120;2022-10-23T07:30:38;5.55;;;2.55;;
13356;SDS011;6747;56.456;-3.120;2022-10-23T07:33:07;3.92;;;2.58;;
13356;SDS011;6747;56.456;-3.120;2022-10-23T07:38:40;13.55;;;2.72;;
13356;SDS011;6747;56.456;-3.120;2022-10-23T07:41:07;6.40;;;3.00;;
13356;SDS011;6747;56.456;-3.120;2022-10-23T07:49:28;5.55;;;2.85;;
13356;SDS011;6747;56.456;-3.120;2022-10-23T07:51:55;5.57;;;2.75;;
13356;SDS011;6747;56.456;-3.120;2022-10-23T07:57:27;3.10;;;2.67;;
13356;SDS011;6747;56.456;-3.120;2022-10-23T07:59:57;6.13;;;2.78;;
13356;SDS011;6747;56.456;-3.120;2022-10-23T08:02:24;4.85;;;2.60;;
13356;SDS011;6747;56.456;-3.120;2022-10-23T08:07:57;6.00;;;2.67;;
13356;SDS011;6747;56.456;-3.120;2022-10-23T08:10:24;4.57;;;3.08;;
13356;SDS011;6747;56.456;-3.120;2022-10-23T08:12:52;6.65;;;3.28;;
13356;SDS011;6747;56.456;-3.120;2022-10-23T08:18:23;5.47;;;3.00;;
13356;SDS011;6747;56.456;-3.120;2022-10-23T08:20:50;5.47;;;3.60;;
13356;SDS011;6747;56.456;-3.120;2022-10-23T08:26:23;6.68;;;2.97;;
13356;SDS011;6747;56.456;-3.120;2022-10-23T08:28:53;6.10;;;3.45;;
13356;SDS011;6747;56.456;-3.120;2022-10-23T08:31:21;6.15;;;3.53;;
13356;SDS011;6747;56.456;-3.120;2022-10-23T08:36:52;6.47;;;3.47;;
13356;SDS011;6747;56.456;-3.120;2022-10-23T08:39:20;5.28;;;3.33;;
13356;SDS011;6747;56.456;-3.120;2022-10-23T08:41:49;6.47;;;3.40;;
13356;SDS011;6747;56.456;-3.120;2022-10-23T08:47:22;7.32;;;3.92;;
13356;SDS011;6747;56.456;-3.120;2022-10-23T08:49:52;9.23;;;3.85;;
13356;SDS011;6747;56.456;-3.120;2022-10-23T08:52:22;6.28;;;3.92;;
13356;SDS011;6747;56.456;-3.120;2022-10-23T08:57:57;4.60;;;3.10;;
13356;SDS011;6747;56.456;-3.120;2022-10-23T09:00:26;5.82;;;3.88;;
13356;SDS011;6747;56.456;-3.120;2022-10-23T09:02:54;6.63;;;4.05;;
13356;SDS011;6747;56.456;-3.120;2022-10-23T09:11:14;6.50;;;4.00;;
13356;SDS011;6747;56.456;-3.120;2022-10-23T09:13:50;5.30;;;3.47;;
13356;SDS011;6747;56.456;-3.120;2022-10-23T09:16:24;7.20;;;3.35;;
13356;SDS011;6747;56.456;-3.120;2022-10-23T09:18:53;7.68;;;3.97;;
13356;SDS011;6747;56.456;-3.120;2022-10-23T09:21:24;8.18;;;3.90;;
13356;SDS011;6747;56.456;-3.120;2022-10-23T09:26:55;4.13;;;3.17;;
13356;SDS011;6747;56.456;-3.120;2022-10-23T09:29:28;7.30;;;3.72;;
13356;SDS011;6747;56.456;-3.120;2022-10-23T09:31:57;6.32;;;3.58;;
13356;SDS011;6747;56.456;-3.120;2022-10-23T09:34:26;8.82;;;3.92;;
13356;SDS011;6747;56.456;-3.120;2022-10-23T09:36:56;6.60;;;4.07;;
13356;SDS011;6747;56.456;-3.120;2022-10-23T09:39:26;7.28;;;4.15;;
13356;SDS011;6747;56.456;-3.120;2022-10-23T09:41:53;8.80;;;4.20;;
13356;SDS011;6747;56.456;-3.120;2022-10-23T09:44:23;7.85;;;4.03;;
13356;SDS011;6747;56.456;-3.120;2022-10-23T09:46:53;8.13;;;4.50;;
13356;SDS011;6747;56.456;-3.120;2022-10-23T09:49:21;7.15;;;3.67;;
13356;SDS011;6747;56.456;-3.120;2022-10-23T09:51:53;8.90;;;4.05;;
13356;SDS011;6747;56.456;-3.120;2022-10-23T09:54:22;5.28;;;3.95;;
13356;SDS011;6747;56.456;-3.120;2022-10-23T09:59:54;5.15;;;3.92;;
13356;SDS011;6747;56.456;-3.120;2022-10-23T10:02:26;6.05;;;4.00;;
13356;SDS011;6747;56.456;-3.120;2022-10-23T10:04:56;7.43;;;4.68;;
13356;SDS011;6747;56.456;-3.120;2022-10-23T10:07:28;6.75;;;4.00;;
13356;SDS011;6747;56.456;-3.120;2022-10-23T10:09:56;5.60;;;3.28;;
13356;SDS011;6747;56.456;-3.120;2022-10-23T10:12:29;7.38;;;3.38;;
13356;SDS011;6747;56.456;-3.120;2022-10-23T10:15:02;7.55;;;3.22;;
13356;SDS011;6747;56.456;-3.120;2022-10-23T10:17:38;5.32;;;3.40;;
13356;SDS011;6747;56.456;-3.120;2022-10-23T10:20:13;5.57;;;3.55;;
13356;SDS011;6747;56.456;-3.120;2022-10-23T10:22:43;6.00;;;3.40;;
13356;SDS011;6747;56.456;-3.120;2022-10-23T10:25:14;4.47;;;3.20;;
13356;SDS011;6747;56.456;-3.120;2022-10-23T10:27:44;4.90;;;3.30;;
13356;SDS011;6747;56.456;-3.120;2022-10-23T10:30:19;4.90;;;3.30;;
13356;SDS011;6747;56.456;-3.120;2022-10-23T10:32:50;11.02;;;3.70;;
13356;SDS011;6747;56.456;-3.120;2022-10-23T10:35:23;6.03;;;3.40;;
13356;SDS011;6747;56.456;-3.120;2022-10-23T10:43:29;7.47;;;3.83;;
13356;SDS011;6747;56.456;-3.120;2022-10-23T10:49:05;5.82;;;3.55;;
13356;SDS011;6747;56.456;-3.120;2022-10-23T10:51:37;5.63;;;3.60;;
13356;SDS011;6747;56.456;-3.120;2022-10-23T10:57:12;7.30;;;3.40;;
13356;SDS011;6747;56.456;-3.120;2022-10-23T10:59:41;5.38;;;3.78;;
13356;SDS011;6747;56.456;-3.120;2022-10-23T11:02:14;6.85;;;3.05;;
13356;SDS011;6747;56.456;-3.120;2022-10-23T11:07:55;6.22;;;3.72;;
13356;SDS011;6747;56.456;-3.120;2022-10-23T11:13:28;8.43;;;3.53;;
13356;SDS011;6747;56.456;-3.120;2022-10-23T11:16:00;4.90;;;3.05;;
13356;SDS011;6747;56.456;-3.120;2022-10-23T11:18:28;6.50;;;3.88;;
13356;SDS011;6747;56.456;-3.120;2022-10-23T11:21:04;6.13;;;3.97;;
13356;SDS011;6747;56.456;-3.120;2022-10-23T11:26:42;8.70;;;3.75;;
13356;SDS011;6747;56.456;-3.120;2022-10-23T11:35:02;11.95;;;4.13;;
13356;SDS011;6747;56.456;-3.120;2022-10-23T11:37:33;8.70;;;3.70;;
13356;SDS011;6747;56.456;-3.120;2022-10-23T11:40:02;6.30;;;3.83;;
13356;SDS011;6747;56.456;-3.120;2022-10-23T11:42:32;9.40;;;4.28;;
13356;SDS011;6747;56.456;-3.120;2022-10-23T11:50:48;10.10;;;4.80;;
13356;SDS011;6747;56.456;-3.120;2022-10-23T11:53:22;9.73;;;4.88;;
13356;SDS011;6747;56.456;-3.120;2022-10-23T11:58:56;10.93;;;5.47;;
13356;SDS011;6747;56.456;-3.120;2022-10-23T12:01:26;9.40;;;4.60;;
13356;SDS011;6747;56.456;-3.120;2022-10-23T12:03:56;9.10;;;5.78;;
13356;SDS011;6747;56.456;-3.120;2022-10-23T12:06:25;14.48;;;6.30;;
13356;SDS011;6747;56.456;-3.120;2022-10-23T12:08:54;14.57;;;6.53;;
13356;SDS011;6747;56.456;-3.120;2022-10-23T12:11:26;15.98;;;7.28;;
13356;SDS011;6747;56.456;-3.120;2022-10-23T12:13:58;18.00;;;9.40;;
13356;SDS011;6747;56.456;-3.120;2022-10-23T12:19:42;21.60;;;10.48;;
13356;SDS011;6747;56.456;-3.120;2022-10-23T12:22:13;15.25;;;8.75;;
13356;SDS011;6747;56.456;-3.120;2022-10-23T12:24:48;10.27;;;7.72;;
13356;SDS011;6747;56.456;-3.120;2022-10-23T12:27:24;13.65;;;8.50;;
13356;SDS011;6747;56.456;-3.120;2022-10-23T12:29:58;9.60;;;7.63;;
13356;SDS011;6747;56.456;-3.120;2022-10-23T12:32:31;9.77;;;7.95;;
13356;SDS011;6747;56.456;-3.120;2022-10-23T12:38:04;11.18;;;9.32;;
13356;SDS011;6747;56.456;-3.120;2022-10-23T12:40:36;12.73;;;9.75;;
13356;SDS011;6747;56.456;-3.120;2022-10-23T12:43:15;15.27;;;11.60;;
13356;SDS011;6747;56.456;-3.120;2022-10-23T12:48:49;16.45;;;12.18;;
13356;SDS011;6747;56.456;-3.120;2022-10-23T12:51:19;17.48;;;12.27;;
13356;SDS011;6747;56.456;-3.120;2022-10-23T12:59:38;21.00;;;13.30;;
13356;SDS011;6747;56.456;-3.120;2022-10-23T13:02:12;24.92;;;15.23;;
13356;SDS011;6747;56.456;-3.120;2022-10-23T13:07:45;23.15;;;13.50;;
13356;SDS011;6747;56.456;-3.120;2022-10-23T13:10:13;20.23;;;12.80;;
13356;SDS011;6747;56.456;-3.120;2022-10-23T13:12:41;21.00;;;13.32;;
13356;SDS011;6747;56.456;-3.120;2022-10-23T13:18:14;18.70;;;12.93;;
13356;SDS011;6747;56.456;-3.120;2022-10-23T13:20:53;19.42;;;12.57;;
13356;SDS011;6747;56.456;-3.120;2022-10-23T13:23:23;17.38;;;11.43;;
13356;SDS011;6747;56.456;-3.120;2022-10-23T13:25:52;17.98;;;12.13;;
13356;SDS011;6747;56.456;-3.120;2022-10-23T13:28:21;17.85;;;11.85;;
13356;SDS011;6747;56.456;-3.120;2022-10-23T13:30:57;20.88;;;12.77;;
13356;SDS011;6747;56.456;-3.120;2022-10-23T13:33:25;18.70;;;11.48;;
13356;SDS011;6747;56.456;-3.120;2022-10-23T13:35:56;20.45;;;11.70;;
13356;SDS011;6747;56.456;-3.120;2022-10-23T13:38:28;18.10;;;12.85;;
13356;SDS011;6747;56.456;-3.120;2022-10-23T13:40:56;19.75;;;11.93;;
13356;SDS011;6747;56.456;-3.120;2022-10-23T13:43:24;18.90;;;12.05;;
13356;SDS011;6747;56.456;-3.120;2022-10-23T13:51:45;20.95;;;12.32;;
13356;SDS011;6747;56.456;-3.120;2022-10-23T13:54:16;20.60;;;11.82;;
13356;SDS011;6747;56.456;-3.120;2022-10-23T13:59:48;16.17;;;10.57;;
13356;SDS011;6747;56.456;-3.120;2022-10-23T14:02:17;17.35;;;9.77;;
13356;SDS011;6747;56.456;-3.120;2022-10-23T14:04:46;13.85;;;9.77;;
13356;SDS011;6747;56.456;-3.120;2022-10-23T14:07:13;14.65;;;9.93;;
13356;SDS011;6747;56.456;-3.120;2022-10-23T14:09:42;15.43;;;9.30;;
13356;SDS011;6747;56.456;-3.120;2022-10-23T14:15:02;12.60;;;8.90;;
13356;SDS011;6747;56.456;-3.120;2022-10-23T14:20:36;10.63;;;8.02;;
13356;SDS011;6747;56.456;-3.120;2022-10-23T14:23:04;13.82;;;8.90;;
13356;SDS011;6747;56.456;-3.120;2022-10-23T14:31:09;16.77;;;8.95;;
13356;SDS011;6747;56.456;-3.120;2022-10-23T14:36:40;15.82;;;8.88;;
13356;SDS011;6747;56.456;-3.120;2022-10-23T14:39:07;15.73;;;9.40;;
13356;SDS011;6747;56.456;-3.120;2022-10-23T14:41:35;15.30;;;9.27;;
13356;SDS011;6747;56.456;-3.120;2022-10-23T14:44:06;16.67;;;9.32;;
13356;SDS011;6747;56.456;-3.120;2022-10-23T14:46:35;19.02;;;10.90;;
13356;SDS011;6747;56.456;-3.120;2022-10-23T14:49:03;18.33;;;10.35;;
13356;SDS011;6747;56.456;-3.120;2022-10-23T14:51:31;17.23;;;9.95;;
13356;SDS011;6747;56.456;-3.120;2022-10-23T14:57:03;14.90;;;9.50;;
13356;SDS011;6747;56.456;-3.120;2022-10-23T14:59:31;14.93;;;9.52;;
13356;SDS011;6747;56.456;-3.120;2022-10-23T15:02:00;15.18;;;9.52;;
13356;SDS011;6747;56.456;-3.120;2022-10-23T15:07:16;13.13;;;9.32;;
13356;SDS011;6747;56.456;-3.120;2022-10-23T15:09:44;14.63;;;9.10;;
13356;SDS011;6747;56.456;-3.120;2022-10-23T15:12:11;15.98;;;9.50;;
13356;SDS011;6747;56.456;-3.120;2022-10-23T15:14:44;16.08;;;9.30;;
13356;SDS011;6747;56.456;-3.120;2022-10-23T15:17:13;13.38;;;9.35;;
13356;SDS011;6747;56.456;-3.120;2022-10-23T15:19:40;17.85;;;9.50;;
13356;SDS011;6747;56.456;-3.120;2022-10-23T15:22:10;13.32;;;9.55;;
13356;SDS011;6747;56.456;-3.120;2022-10-23T15:24:37;13.43;;;9.52;;
13356;SDS011;6747;56.456;-3.120;2022-10-23T15:30:11;16.25;;;9.95;;
13356;SDS011;6747;56.456;-3.120;2022-10-23T15:32:40;15.48;;;10.20;;
13356;SDS011;6747;56.456;-3.120;2022-10-23T15:38:12;12.90;;;8.95;;
13356;SDS011;6747;56.456;-3.120;2022-10-23T15:40:40;11.30;;;8.07;;
13356;SDS011;6747;56.456;-3.120;2022-10-23T15:43:09;14.55;;;9.10;;
13356;SDS011;6747;56.456;-3.120;2022-10-23T15:48:26;11.48;;;8.07;;
13356;SDS011;6747;56.456;-3.120;2022-10-23T15:50:54;12.70;;;8.95;;
13356;SDS011;6747;56.456;-3.120;2022-10-23T15:53:23;13.80;;;8.90;;
13356;SDS011;6747;56.456;-3.120;2022-10-23T15:55:53;11.80;;;8.43;;
13356;SDS011;6747;56.456;-3.120;2022-10-23T15:58:22;10.65;;;7.85;;
13356;SDS011;6747;56.456;-3.120;2022-10-23T16:00:50;15.05;;;8.75;;
13356;SDS011;6747;56.456;-3.120;2022-10-23T16:03:17;14.73;;;8.57;;
13356;SDS011;6747;56.456;-3.120;2022-10-23T16:11:22;15.07;;;8.05;;
13356;SDS011;6747;56.456;-3.120;2022-10-23T16:13:50;14.85;;;8.32;;
13356;SDS011;6747;56.456;-3.120;2022-10-23T16:16:19;13.30;;;8.13;;
13356;SDS011;6747;56.456;-3.120;2022-10-23T16:18:46;14.98;;;8.43;;
13356;SDS011;6747;56.456;-3.120;2022-10-23T16:21:17;12.38;;;8.27;;
13356;SDS011;6747;56.456;-3.120;2022-10-23T16:26:51;11.32;;;7.55;;
13356;SDS011;6747;56.456;-3.120;2022-10-23T16:29:20;8.23;;;6.60;;
13356;SDS011;6747;56.456;-3.120;2022-10-23T16:31:48;7.57;;;6.75;;
13356;SDS011;6747;56.456;-3.120;2022-10-23T16:37:19;8.75;;;6.68;;
13356;SDS011;6747;56.456;-3.120;2022-10-23T16:39:46;8.52;;;5.90;;
13356;SDS011;6747;56.456;-3.120;2022-10-23T16:42:15;8.25;;;6.35;;
13356;SDS011;6747;56.456;-3.120;2022-10-23T16:47:46;13.50;;;10.38;;
13356;SDS011;6747;56.456;-3.120;2022-10-23T16:50:13;9.63;;;6.43;;
13356;SDS011;6747;56.456;-3.120;2022-10-23T16:52:41;7.20;;;6.45;;
13356;SDS011;6747;56.456;-3.120;2022-10-23T16:57:59;7.85;;;5.70;;
13356;SDS011;6747;56.456;-3.120;2022-10-23T17:00:26;6.97;;;5.88;;
13356;SDS011;6747;56.456;-3.120;2022-10-23T17:02:59;6.20;;;4.97;;
13356;SDS011;6747;56.456;-3.120;2022-10-23T17:08:30;9.02;;;7.40;;
13356;SDS011;6747;56.456;-3.120;2022-10-23T17:11:04;8.10;;;6.82;;
13356;SDS011;6747;56.456;-3.120;2022-10-23T17:16:39;11.63;;;4.50;;
13356;SDS011;6747;56.456;-3.120;2022-10-23T17:19:09;5.03;;;3.50;;
13356;SDS011;6747;56.456;-3.120;2022-10-23T17:21:37;4.53;;;3.40;;
13356;SDS011;6747;56.456;-3.120;2022-10-23T17:27:09;3.88;;;2.90;;
13356;SDS011;6747;56.456;-3.120;2022-10-23T17:29:36;3.00;;;2.75;;
13356;SDS011;6747;56.456;-3.120;2022-10-23T17:32:05;3.88;;;3.03;;
13356;SDS011;6747;56.456;-3.120;2022-10-23T17:37:36;4.15;;;3.30;;
13356;SDS011;6747;56.456;-3.120;2022-10-23T17:40:04;2.85;;;2.50;;
13356;SDS011;6747;56.456;-3.120;2022-10-23T17:42:32;2.58;;;2.38;;
13356;SDS011;6747;56.456;-3.120;2022-10-23T17:48:04;2.08;;;1.98;;
13356;SDS011;6747;56.456;-3.120;2022-10-23T17:50:32;2.65;;;2.15;;
13356;SDS011;6747;56.456;-3.120;2022-10-23T17:52:59;1.70;;;1.60;;
13356;SDS011;6747;56.456;-3.120;2022-10-23T17:58:30;1.92;;;1.30;;
13356;SDS011;6747;56.456;-3.120;2022-10-23T18:01:02;2.10;;;1.35;;
13356;SDS011;6747;56.456;-3.120;2022-10-23T18:06:35;1.40;;;1.20;;
13356;SDS011;6747;56.456;-3.120;2022-10-23T18:09:03;1.02;;;1.02;;
13356;SDS011;6747;56.456;-3.120;2022-10-23T18:11:32;1.33;;;1.33;;
13356;SDS011;6747;56.456;-3.120;2022-10-23T18:20:07;1.10;;;1.10;;
13356;SDS011;6747;56.456;-3.120;2022-10-23T18:22:37;1.25;;;1.25;;
13356;SDS011;6747;56.456;-3.120;2022-10-23T18:28:08;0.68;;;0.68;;
13356;SDS011;6747;56.456;-3.120;2022-10-23T18:30:35;1.35;;;0.95;;
13356;SDS011;6747;56.456;-3.120;2022-10-23T18:33:03;1.20;;;1.10;;
13356;SDS011;6747;56.456;-3.120;2022-10-23T18:38:35;1.50;;;1.42;;
13356;SDS011;6747;56.456;-3.120;2022-10-23T18:41:02;2.20;;;2.00;;
13356;SDS011;6747;56.456;-3.120;2022-10-23T18:46:34;1.95;;;1.70;;
13356;SDS011;6747;56.456;-3.120;2022-10-23T18:49:02;2.10;;;1.90;;
13356;SDS011;6747;56.456;-3.120;2022-10-23T18:51:30;2.15;;;1.95;;
13356;SDS011;6747;56.456;-3.120;2022-10-23T18:57:03;5.22;;;2.90;;
13356;SDS011;6747;56.456;-3.120;2022-10-23T18:59:30;6.35;;;3.10;;
13356;SDS011;6747;56.456;-3.120;2022-10-23T19:01:57;7.22;;;3.97;;
13356;SDS011;6747;56.456;-3.120;2022-10-23T19:07:28;6.88;;;2.80;;
13356;SDS011;6747;56.456;-3.120;2022-10-23T19:09:55;1.63;;;1.50;;
13356;SDS011;6747;56.456;-3.120;2022-10-23T19:12:24;7.63;;;3.60;;
13356;SDS011;6747;56.456;-3.120;2022-10-23T19:17:55;11.40;;;5.28;;
13356;SDS011;6747;56.456;-3.120;2022-10-23T19:20:24;10.18;;;4.70;;
13356;SDS011;6747;56.456;-3.120;2022-10-23T19:22:51;15.57;;;7.43;;
13356;SDS011;6747;56.456;-3.120;2022-10-23T19:28:25;8.80;;;4.80;;
13356;SDS011;6747;56.456;-3.120;2022-10-23T19:30:52;9.02;;;5.05;;
13356;SDS011;6747;56.456;-3.120;2022-10-23T19:33:20;10.73;;;4.25;;
13356;SDS011;6747;56.456;-3.120;2022-10-23T19:38:51;6.18;;;3.28;;
13356;SDS011;6747;56.456;-3.120;2022-10-23T19:41:18;5.93;;;3.40;;
13356;SDS011;6747;56.456;-3.120;2022-10-23T19:46:51;4.82;;;2.50;;
13356;SDS011;6747;56.456;-3.120;2022-10-23T19:49:18;4.65;;;2.80;;
13356;SDS011;6747;56.456;-3.120;2022-10-23T19:51:47;10.95;;;4.43;;
13356;SDS011;6747;56.456;-3.120;2022-10-23T19:57:19;6.72;;;2.95;;
13356;SDS011;6747;56.456;-3.120;2022-10-23T19:59:46;7.57;;;2.70;;
13356;SDS011;6747;56.456;-3.120;2022-10-23T20:02:15;7.30;;;4.20;;
13356;SDS011;6747;56.456;-3.120;2022-10-23T20:07:46;6.20;;;3.28;;
13356;SDS011;6747;56.456;-3.120;2022-10-23T20:10:14;3.80;;;2.40;;
13356;SDS011;6747;56.456;-3.120;2022-10-23T20:12:42;7.18;;;3.30;;
13356;SDS011;6747;56.456;-3.120;2022-10-23T20:17:58;12.35;;;4.53;;
13356;SDS011;6747;56.456;-3.120;2022-10-23T20:20:25;6.75;;;2.92;;
13356;SDS011;6747;56.456;-3.120;2022-10-23T20:22:53;6.13;;;2.25;;
13356;SDS011;6747;56.456;-3.120;2022-10-23T20:28:06;2.42;;;2.13;;
13356;SDS011;6747;56.456;-3.120;2022-10-23T20:30:37;2.67;;;1.70;;
13356;SDS011;6747;56.456;-3.120;2022-10-23T20:33:06;3.80;;;2.00;;
13356;SDS011;6747;56.456;-3.120;2022-10-23T20:35:39;4.78;;;2.40;;
13356;SDS011;6747;56.456;-3.120;2022-10-23T20:38:07;5.82;;;3.15;;
13356;SDS011;6747;56.456;-3.120;2022-10-23T20:40:35;5.30;;;2.40;;
13356;SDS011;6747;56.456;-3.120;2022-10-23T20:43:02;3.97;;;2.42;;
13356;SDS011;6747;56.456;-3.120;2022-10-23T20:51:38;11.30;;;4.07;;
13356;SDS011;6747;56.456;-3.120;2022-10-23T20:59:56;14.65;;;4.80;;
13356;SDS011;6747;56.456;-3.120;2022-10-23T21:02:27;10.23;;;4.85;;
13356;SDS011;6747;56.456;-3.120;2022-10-23T21:07:59;12.95;;;5.47;;
13356;SDS011;6747;56.456;-3.120;2022-10-23T21:10:26;8.57;;;3.42;;
13356;SDS011;6747;56.456;-3.120;2022-10-23T21:12:54;14.18;;;5.25;;